createdAt,value
2023-05-14T00:03:34.597Z,90.77
2023-05-14T00:18:34.424Z,90.36
2023-05-14T00:33:34.245Z,91.53
2023-05-14T00:48:34.092Z,92.08
2023-05-14T01:03:34.023Z,91.47
2023-05-14T01:18:33.810Z,91.93
2023-05-14T01:33:33.607Z,92.89
2023-05-14T01:48:33.462Z,94.07
2023-05-14T02:03:33.305Z,92.85
2023-05-14T02:18:33.129Z,92.95
2023-05-14T02:33:33.066Z,91.47
2023-05-14T02:48:32.818Z,90.30
2023-05-14T03:03:32.653Z,89.54
2023-05-14T03:18:32.543Z,87.65
2023-05-14T03:33:32.336Z,86.90
2023-05-14T03:48:32.335Z,85.46
2023-05-14T04:03:32.325Z,86.79
2023-05-14T04:18:38.900Z,84.19
2023-05-14T04:33:32.213Z,85.63
2023-05-14T04:48:31.591Z,86.24
2023-05-14T05:03:31.411Z,85.03
2023-05-14T05:18:31.394Z,84.48
2023-05-14T05:33:31.150Z,78.37
2023-05-14T05:48:30.916Z,72.14
2023-05-14T06:03:30.786Z,69.26
2023-05-14T06:18:30.675Z,65.54
2023-05-14T06:33:30.483Z,63.07
2023-05-14T06:48:30.310Z,60.58
2023-05-14T07:03:30.153Z,61.20
2023-05-14T07:18:29.984Z,57.20
2023-05-14T07:33:29.826Z,54.51
2023-05-14T07:48:29.693Z,52.54
2023-05-14T08:03:29.655Z,48.74
2023-05-14T08:18:29.375Z,48.99
2023-05-14T08:33:30.099Z,44.73
2023-05-14T08:48:29.297Z,41.29
2023-05-14T09:03:30.077Z,44.56
2023-05-14T09:18:28.859Z,40.63
2023-05-14T09:33:28.753Z,38.16
2023-05-14T09:48:28.893Z,39.67
2023-05-14T10:03:28.230Z,38.73
2023-05-14T10:18:28.108Z,38.53
2023-05-14T10:33:27.901Z,37.83
2023-05-14T10:48:27.741Z,39.73
2023-05-14T11:03:27.670Z,41.31
2023-05-14T11:18:27.429Z,43.20
2023-05-14T11:33:27.262Z,41.77
2023-05-14T11:48:27.100Z,42.47
2023-05-14T12:03:27.234Z,42.41
2023-05-14T12:18:27.058Z,39.59
2023-05-14T12:33:26.719Z,41.11
2023-05-14T12:48:27.570Z,36.28
2023-05-14T13:03:26.438Z,37.63
2023-05-14T13:18:26.171Z,39.95
2023-05-14T13:33:25.972Z,37.42
2023-05-14T13:48:25.830Z,40.23
2023-05-14T14:03:25.729Z,38.60
2023-05-14T14:18:25.581Z,36.20
2023-05-14T14:33:25.336Z,36.68
2023-05-14T14:48:25.212Z,36.66
2023-05-14T15:03:25.305Z,34.88
2023-05-14T15:18:24.849Z,38.12
2023-05-14T15:33:24.854Z,37.65
2023-05-14T15:48:24.532Z,40.06
2023-05-14T16:03:24.798Z,39.08
2023-05-14T16:18:24.214Z,41.29
2023-05-14T16:33:24.049Z,41.39
2023-05-14T16:48:23.879Z,41.41
2023-05-14T17:03:23.792Z,45.37
2023-05-14T17:18:23.567Z,48.14
2023-05-14T17:33:23.491Z,50.62
2023-05-14T17:48:23.246Z,55.16
2023-05-14T18:03:23.279Z,59.27
2023-05-14T18:18:22.988Z,63.50
2023-05-14T18:33:22.839Z,65.72
2023-05-14T18:48:22.616Z,68.73
2023-05-14T19:03:22.560Z,70.04
2023-05-14T19:18:22.417Z,72.04
2023-05-14T19:33:22.171Z,72.82
2023-05-14T19:48:22.077Z,74.69
2023-05-14T20:03:21.945Z,76.32
2023-05-14T20:18:21.702Z,77.79
2023-05-14T20:33:21.510Z,77.97
2023-05-14T20:48:21.355Z,78.58
2023-05-14T21:03:21.334Z,80.60
2023-05-14T21:18:21.027Z,81.35
2023-05-14T21:33:20.847Z,82.51
2023-05-14T21:48:20.831Z,83.64
2023-05-14T22:03:20.672Z,84.64
2023-05-14T22:18:20.393Z,86.63
2023-05-14T22:33:20.262Z,86.22
2023-05-14T22:48:20.077Z,86.66
2023-05-14T23:03:19.944Z,88.76
2023-05-14T23:18:19.901Z,87.94
2023-05-14T23:33:19.636Z,89.93
2023-05-14T23:48:19.439Z,89.52
